Time;durP1;ratioP1;P1;durP2;ratioP2;P2;SDS_P1;SDS_P2;PMS_P1;PMS_P2;Temp;Humidity;BMP_temperature;BMP_pressure;BME280_temperature;BME280_humidity;BME280_pressure;Samples;Min_cycle;Max_cycle;Signal;HPM_P1;HPM_P2
2023/01/24 00:00:50;;;;;;;8.07;5.15;;;;;;;5.68;75.79;96205.22;5006819;28;20040;-77
2023/01/24 00:03:15;;;;;;;10.15;5.20;;;;;;;5.53;75.84;96168.75;5006201;28;20030;-76
2023/01/24 00:05:43;;;;;;;8.38;5.10;;;;;;;5.52;75.01;96150.53;5035079;28;20458;-76
2023/01/24 00:08:12;;;;;;;9.63;5.35;;;;;;;5.91;75.26;96200.16;5036015;28;20530;-76
2023/01/24 00:10:37;;;;;;;8.55;5.28;;;;;;;5.07;74.51;96068.44;5017324;28;20513;-76
2023/01/24 00:13:03;;;;;;;9.13;5.47;;;;;;;5.55;74.49;96139.59;5035441;28;20104;-76
2023/01/24 00:15:28;;;;;;;7.72;5.00;;;;;;;5.90;74.85;96222.25;5017852;28;20049;-76
2023/01/24 00:17:54;;;;;;;9.00;5.28;;;;;;;5.69;75.49;96199.75;5035075;28;20024;-78
2023/01/24 00:20:19;;;;;;;7.43;4.57;;;;;;;4.83;75.08;96049.03;5008385;28;20040;-77
2023/01/24 00:22:45;;;;;;;9.95;5.10;;;;;;;5.48;75.07;96157.25;4997847;28;20025;-78
2023/01/24 00:25:10;;;;;;;8.70;5.35;;;;;;;5.07;74.95;96095.53;5015444;28;20049;-78
2023/01/24 00:27:36;;;;;;;11.20;5.35;;;;;;;5.74;75.67;96213.06;4997708;28;20029;-78
2023/01/24 00:30:04;;;;;;;7.90;4.40;;;;;;;5.35;74.88;96132.69;5015893;28;20113;-78
2023/01/24 00:32:29;;;;;;;9.45;5.00;;;;;;;5.85;75.07;96216.00;4997304;28;20096;-78
2023/01/24 00:34:55;;;;;;;9.63;5.40;;;;;;;5.75;75.61;96212.03;5015290;28;20026;-78
2023/01/24 00:37:20;;;;;;;8.07;5.10;;;;;;;5.15;75.30;96118.13;4997709;28;20742;-78
2023/01/24 00:39:46;;;;;;;9.02;4.80;;;;;;;4.95;75.16;96107.78;4997721;28;20029;-77
2023/01/24 00:42:11;;;;;;;13.93;4.93;;;;;;;5.04;75.23;96120.41;5015356;28;20052;-78
2023/01/24 00:44:36;;;;;;;10.45;5.43;;;;;;;5.32;75.53;96180.47;5015129;28;20480;-76
2023/01/24 00:47:03;;;;;;;9.35;5.28;;;;;;;5.03;75.59;96118.03;5014891;28;20101;-76
2023/01/24 00:49:28;;;;;;;7.65;4.47;;;;;;;5.47;76.12;96211.72;5014799;28;20050;-77
2023/01/24 00:51:54;;;;;;;8.05;5.57;;;;;;;5.31;77.26;96209.63;4997444;28;20033;-76
2023/01/24 00:54:19;;;;;;;9.43;5.60;;;;;;;4.57;77.07;96107.88;5014867;28;20037;-77
2023/01/24 00:56:44;;;;;;;9.30;5.20;;;;;;;4.97;77.55;96187.22;4996950;28;20026;-77
2023/01/24 00:59:10;;;;;;;10.35;5.25;;;;;;;4.57;77.27;96129.69;4997048;28;20030;-76
2023/01/24 01:01:36;;;;;;;11.55;5.85;;;;;;;5.16;77.59;96217.81;5003149;28;20113;-75
2023/01/24 01:04:01;;;;;;;14.23;5.63;;;;;;;5.18;76.99;96202.66;5015673;28;20392;-75
2023/01/24 01:06:26;;;;;;;12.88;6.15;;;;;;;5.02;76.80;96176.88;5031104;28;20101;-75
2023/01/24 01:08:52;;;;;;;12.05;6.22;;;;;;;4.81;76.77;96137.78;4996173;28;20771;-76
2023/01/24 01:11:18;;;;;;;11.80;6.15;;;;;;;5.14;76.57;96204.09;5016535;28;20030;-75
2023/01/24 01:13:48;;;;;;;11.85;6.20;;;;;;;5.02;76.51;96158.47;5032909;28;20029;-75
2023/01/24 01:16:16;;;;;;;13.13;6.90;;;;;;;5.04;75.89;96157.22;5015566;28;20037;-76
2023/01/24 01:18:42;;;;;;;10.00;6.10;;;;;;;4.90;75.92;96137.31;5015446;28;20462;-75
2023/01/24 01:21:11;;;;;;;8.68;5.70;;;;;;;5.51;75.89;96220.75;5015589;28;20037;-76
2023/01/24 01:23:36;;;;;;;11.45;5.90;;;;;;;5.44;75.16;96207.66;5015756;28;20029;-75
2023/01/24 01:26:04;;;;;;;14.27;6.68;;;;;;;5.64;75.00;96214.59;5016182;28;20513;-75
2023/01/24 01:28:30;;;;;;;12.48;6.32;;;;;;;5.40;74.86;96179.41;5033084;28;20037;-75
2023/01/24 01:30:56;;;;;;;11.57;6.15;;;;;;;5.65;75.07;96231.97;5033664;28;20100;-76
2023/01/24 01:33:21;;;;;;;12.02;6.45;;;;;;;5.37;74.52;96195.59;5033616;28;20030;-76
2023/01/24 01:35:48;;;;;;;11.27;6.70;;;;;;;5.11;74.72;96136.13;5033632;28;20495;-76
2023/01/24 01:38:14;;;;;;;13.38;7.28;;;;;;;4.97;74.67;96116.22;5033571;28;20025;-75
2023/01/24 01:40:42;;;;;;;11.52;6.65;;;;;;;5.73;74.91;96216.72;5032874;28;20040;-76
2023/01/24 01:43:14;;;;;;;13.45;6.65;;;;;;;5.49;74.12;96164.13;5033494;28;20029;-75
2023/01/24 01:45:42;;;;;;;14.05;7.75;;;;;;;5.71;74.27;96224.03;5015738;28;20120;-76
2023/01/24 01:48:29;;;;;;;14.93;6.85;;;;;;;5.69;74.09;96212.91;5014313;28;20106;-75
2023/01/24 01:50:58;;;;;;;13.23;6.47;;;;;;;5.57;74.05;96171.75;5013068;28;20084;-76
2023/01/24 01:53:27;;;;;;;14.93;7.15;;;;;;;5.81;73.46;96215.63;5012786;28;20143;-76
2023/01/24 01:55:59;;;;;;;14.38;6.60;;;;;;;5.88;73.47;96215.56;5012618;28;20471;-76
2023/01/24 01:58:25;;;;;;;16.63;6.18;;;;;;;5.76;73.22;96215.47;5012755;28;20053;-76
2023/01/24 02:00:51;;;;;;;13.77;6.03;;;;;;;5.32;73.45;96153.38;5013009;28;20728;-76
2023/01/24 02:03:40;;;;;;;10.55;6.20;;;;;;;5.44;74.80;96205.03;5001565;28;20033;-76
2023/01/24 02:06:18;;;;;;;17.88;6.75;;;;;;;5.39;75.09;96212.78;5032625;28;20032;-76
2023/01/24 02:08:45;;;;;;;10.30;5.82;;;;;;;5.38;74.44;96189.31;5032841;28;20037;-76
2023/01/24 02:16:02;;;;;;;11.68;6.82;;;;;;;4.72;74.18;96102.31;5030604;28;20052;-76
2023/01/24 02:16:43;;;;;;;11.18;4.88;;;;;;;5.42;75.01;96204.44;5015122;28;20181;-76
2023/01/24 02:19:25;;;;;;;8.88;5.40;;;;;;;5.13;74.72;96164.84;4995254;28;20077;-75
2023/01/24 02:21:58;;;;;;;6.63;4.22;;;;;;;5.24;74.58;96187.81;4995087;28;20042;-75
2023/01/24 02:24:52;;;;;;;8.73;5.30;;;;;;;5.32;75.13;96180.47;4988491;28;20477;-76
2023/01/24 02:27:18;;;;;;;7.88;4.57;;;;;;;4.87;74.97;96113.31;4988558;28;20045;-76
2023/01/24 02:29:43;;;;;;;9.93;6.28;;;;;;;5.05;74.89;96142.25;4994886;28;20038;-76
2023/01/24 02:32:09;;;;;;;9.98;5.57;;;;;;;4.87;74.32;96103.59;5016957;28;20033;-76
2023/01/24 02:34:34;;;;;;;8.10;4.72;;;;;;;5.24;74.09;96143.13;5011401;28;20116;-75
2023/01/24 02:37:03;;;;;;;7.78;5.45;;;;;;;5.60;74.03;96208.94;5012416;28;20117;-75
2023/01/24 02:39:35;;;;;;;10.07;5.57;;;;;;;5.56;74.21;96215.69;4994738;28;20124;-75
2023/01/24 02:42:05;;;;;;;8.38;4.72;;;;;;;5.10;74.51;96150.31;4998575;28;20029;-77
2023/01/24 02:44:34;;;;;;;7.57;4.35;;;;;;;5.08;74.94;96198.88;5027230;28;20415;-76
2023/01/24 02:47:00;;;;;;;10.30;4.57;;;;;;;5.10;75.71;96195.03;5012530;28;20038;-75
2023/01/24 02:49:25;;;;;;;6.78;4.38;;;;;;;4.62;75.43;96113.28;5018489;28;20057;-75
2023/01/24 02:54:34;;;;;;;9.68;5.22;;;;;;;4.92;76.44;96195.75;5026338;28;20044;-76
2023/01/24 02:59:44;;;;;;;9.15;5.43;;;;;;;4.78;75.83;96111.97;5023154;28;20059;-79
2023/01/24 03:02:09;;;;;;;10.30;5.78;;;;;;;5.26;75.83;96197.13;5030683;28;20525;-78
2023/01/24 03:04:35;;;;;;;9.50;4.47;;;;;;;4.83;75.43;96147.09;5012293;28;20068;-78
2023/01/24 03:07:00;;;;;;;9.55;5.72;;;;;;;4.98;75.04;96131.00;5020900;28;20121;-78
2023/01/24 03:09:35;;;;;;;11.55;5.07;;;;;;;5.10;75.23;96139.00;5001889;28;20044;-78
2023/01/24 03:36:42;;;;;;;7.63;4.97;;;;;;;5.24;73.84;96196.53;5024224;28;20048;-78
2023/01/24 03:41:54;;;;;;;6.57;4.22;;;;;;;4.93;73.59;96141.34;5014301;28;20454;-78
2023/01/24 03:44:19;;;;;;;9.05;4.10;;;;;;;5.34;73.99;96194.19;5006378;28;20038;-79
2023/01/24 03:46:44;;;;;;;6.07;3.58;;;;;;;5.15;73.51;96163.63;4996642;28;20038;-78
2023/01/24 03:49:11;;;;;;;6.15;4.03;;;;;;;5.42;72.69;96191.28;4996304;28;20100;-78
2023/01/24 03:54:21;;;;;;;7.03;3.90;;;;;;;5.15;73.10;96152.28;5014133;28;20115;-78
2023/01/24 03:56:47;;;;;;;7.05;4.13;;;;;;;5.30;73.25;96184.34;5029750;28;20037;-78
2023/01/24 03:59:12;;;;;;;6.45;4.03;;;;;;;5.00;73.32;96131.59;5016039;28;20507;-78
2023/01/24 04:01:38;;;;;;;7.57;4.43;;;;;;;4.45;73.67;96085.91;5015796;28;20037;-78
2023/01/24 04:04:03;;;;;;;6.85;4.25;;;;;;;4.45;74.03;96070.97;5032818;28;20104;-79
2023/01/24 04:06:29;;;;;;;7.07;4.75;;;;;;;4.76;74.01;96100.84;5015851;28;20045;-78
2023/01/24 04:08:54;;;;;;;5.90;4.32;;;;;;;4.51;74.02;96087.69;5033247;28;20107;-78
2023/01/24 04:11:19;;;;;;;7.00;4.20;;;;;;;5.16;73.83;96178.38;5015578;28;20087;-78
2023/01/24 04:13:45;;;;;;;8.25;4.95;;;;;;;4.95;75.12;96194.53;5015720;28;20427;-78
2023/01/24 04:16:10;;;;;;;9.23;5.63;;;;;;;4.55;74.74;96097.56;5024682;28;20426;-78
2023/01/24 04:18:36;;;;;;;8.45;5.85;;;;;;;4.66;74.57;96102.13;5012884;28;20488;-78
2023/01/24 04:21:05;;;;;;;9.82;5.68;;;;;;;5.26;73.96;96181.34;5029909;28;20048;-79
2023/01/24 04:23:31;;;;;;;9.48;5.95;;;;;;;5.10;74.14;96149.50;5015693;28;20618;-78
2023/01/24 04:25:59;;;;;;;8.15;4.80;;;;;;;5.11;74.20;96178.19;5032566;28;20040;-78
2023/01/24 04:28:25;;;;;;;7.63;5.25;;;;;;;4.74;74.58;96144.91;5015299;28;20068;-78
2023/01/24 04:31:01;;;;;;;7.47;4.72;;;;;;;4.63;74.67;96099.13;5015251;28;20045;-78
2023/01/24 04:33:27;;;;;;;6.35;4.63;;;;;;;4.33;74.16;96070.06;5000543;28;20037;-78
2023/01/24 04:35:58;;;;;;;8.68;4.65;;;;;;;5.00;74.02;96189.44;5016109;28;20464;-79
2023/01/24 04:38:23;;;;;;;7.75;4.70;;;;;;;5.17;73.59;96193.16;5012977;28;20099;-78
2023/01/24 04:40:57;;;;;;;9.02;5.10;;;;;;;5.09;73.54;96168.94;5014730;28;20030;-78
2023/01/24 04:43:22;;;;;;;8.50;4.65;;;;;;;4.77;73.76;96140.06;4995389;28;20037;-79
2023/01/24 04:45:48;;;;;;;6.15;4.35;;;;;;;4.87;73.79;96127.25;4995637;28;20025;-78
2023/01/24 04:48:15;;;;;;;6.97;3.95;;;;;;;4.94;74.03;96167.44;5012211;28;20046;-78
2023/01/24 04:50:40;;;;;;;5.82;3.53;;;;;;;4.75;73.71;96133.41;5012677;28;20136;-78
2023/01/24 04:53:05;;;;;;;6.75;3.78;;;;;;;5.13;73.92;96197.22;5012615;28;20117;-78
2023/01/24 04:55:31;;;;;;;6.18;3.63;;;;;;;5.02;72.70;96159.28;4994985;28;20065;-78
2023/01/24 04:57:56;;;;;;;6.65;3.53;;;;;;;5.29;72.45;96199.31;4994516;28;20124;-78
2023/01/24 05:00:22;;;;;;;7.45;4.00;;;;;;;4.87;72.54;96139.59;4994238;28;20033;-78
2023/01/24 05:02:50;;;;;;;6.80;4.07;;;;;;;5.05;73.63;96203.53;5012597;28;20038;-78
2023/01/24 05:05:16;;;;;;;7.13;3.97;;;;;;;5.02;73.29;96203.19;4993766;28;20069;-78
2023/01/24 05:07:41;;;;;;;10.55;5.38;;;;;;;4.72;73.60;96166.19;4994498;28;20068;-79
2023/01/24 05:10:07;;;;;;;9.80;3.60;;;;;;;4.48;73.75;96128.34;5009223;28;20041;-80
2023/01/24 05:12:33;;;;;;;6.32;3.30;;;;;;;4.95;73.54;96210.31;5011381;28;20034;-79
2023/01/24 05:14:58;;;;;;;6.68;4.00;;;;;;;4.06;73.31;96063.34;5011273;28;20165;-79
2023/01/24 05:17:23;;;;;;;5.30;3.80;;;;;;;4.54;73.86;96150.31;4999859;28;20615;-79
2023/01/24 05:19:49;;;;;;;6.45;3.70;;;;;;;5.06;74.14;96220.13;5012149;28;20041;-79
2023/01/24 05:22:14;;;;;;;7.10;3.75;;;;;;;4.70;73.54;96149.00;4997991;28;20034;-79
2023/01/24 05:24:40;;;;;;;10.98;3.83;;;;;;;4.22;73.48;96097.78;4987193;28;20031;-79
2023/01/24 05:27:05;;;;;;;6.68;4.13;;;;;;;4.60;72.86;96152.09;5006099;28;20176;-80
2023/01/24 05:29:30;;;;;;;11.93;4.38;;;;;;;4.62;73.34;96171.91;5000292;28;20038;-80
2023/01/24 05:31:56;;;;;;;9.57;3.92;;;;;;;5.03;73.35;96236.34;4993449;28;20041;-80
2023/01/24 05:34:22;;;;;;;8.57;3.90;;;;;;;4.73;72.53;96175.66;4955265;28;20041;-78
2023/01/24 05:36:48;;;;;;;9.77;3.95;;;;;;;4.73;73.16;96203.78;4984810;28;20044;-79
2023/01/24 05:39:14;;;;;;;15.80;4.47;;;;;;;4.47;73.86;96186.34;4990012;28;20129;-78
2023/01/24 05:41:40;;;;;;;7.15;3.95;;;;;;;4.62;73.28;96186.84;4990184;28;20093;-79
2023/01/24 05:44:05;;;;;;;6.95;3.80;;;;;;;4.56;73.43;96167.50;5015700;28;20029;-78
2023/01/24 05:46:30;;;;;;;9.13;4.57;;;;;;;4.98;73.67;96246.66;4986243;28;20058;-78
2023/01/24 05:48:56;;;;;;;7.00;4.30;;;;;;;4.20;73.21;96131.31;4979550;28;20156;-79
2023/01/24 05:51:21;;;;;;;8.13;4.47;;;;;;;4.89;72.87;96242.66;5006100;28;20042;-79
2023/01/24 05:53:48;;;;;;;6.32;4.25;;;;;;;5.08;72.72;96259.34;4998358;28;20367;-80
2023/01/24 05:56:17;;;;;;;10.60;4.35;;;;;;;4.65;72.51;96202.97;5015675;28;20038;-80
2023/01/24 05:58:44;;;;;;;6.50;4.60;;;;;;;4.45;73.37;96168.16;5006566;28;20658;-80
2023/01/24 06:01:16;;;;;;;10.63;5.10;;;;;;;4.46;72.83;96185.53;5007781;28;20496;-80
2023/01/24 06:03:43;;;;;;;11.15;4.90;;;;;;;4.86;72.79;96230.78;5003002;28;20049;-82
2023/01/24 06:06:11;;;;;;;16.48;5.65;;;;;;;5.01;73.14;96272.53;5004928;28;20524;-81
2023/01/24 06:08:38;;;;;;;15.75;7.15;;;;;;;4.46;73.21;96179.47;4990414;28;20021;-82
2023/01/24 06:11:05;;;;;;;13.35;7.05;;;;;;;4.24;72.59;96126.47;4976531;28;20096;-81
2023/01/24 06:13:32;;;;;;;12.30;6.30;;;;;;;5.21;72.43;96282.91;4995601;28;20199;-83
2023/01/24 06:16:06;;;;;;;10.25;5.97;;;;;;;4.80;72.47;96228.19;4998764;28;20033;-80
2023/01/24 06:18:35;;;;;;;10.60;6.00;;;;;;;5.15;72.62;96281.94;5006922;28;20044;-87
2023/01/24 06:21:13;;;;;;;9.48;4.70;;;;;;;4.54;73.46;96205.50;4994933;28;20562;-82
2023/01/24 06:23:38;;;;;;;8.23;4.18;;;;;;;4.47;72.21;96170.56;4979281;28;20089;-80
2023/01/24 06:26:04;;;;;;;9.73;4.85;;;;;;;4.18;72.95;96196.38;5002491;28;20029;-81
2023/01/24 06:28:30;;;;;;;16.65;5.90;;;;;;;4.92;72.55;96300.91;4984204;28;20044;-83
2023/01/24 06:31:24;;;;;;;10.73;5.53;;;;;;;5.07;72.52;96297.16;5004340;28;20029;-82
2023/01/24 06:34:23;;;;;;;9.02;5.00;;;;;;;5.20;72.00;96305.78;5007328;28;20551;-81
2023/01/24 06:37:02;;;;;;;7.03;4.45;;;;;;;3.72;71.54;96111.75;5003592;28;20412;-83
2023/01/24 06:39:27;;;;;;;5.57;3.97;;;;;;;4.10;72.66;96186.09;5002402;28;20576;-79
2023/01/24 06:41:53;;;;;;;8.73;4.25;;;;;;;4.85;74.71;96300.13;5004783;28;20037;-80
2023/01/24 06:44:19;;;;;;;9.48;4.68;;;;;;;4.39;74.22;96226.78;4982390;28;20045;-82
2023/01/24 06:46:44;;;;;;;7.40;4.07;;;;;;;4.95;75.74;96328.59;5002120;28;20025;-80
2023/01/24 06:49:11;;;;;;;12.65;5.45;;;;;;;4.42;75.93;96233.44;4986513;28;20729;-81
2023/01/24 06:51:36;;;;;;;9.13;4.75;;;;;;;4.76;75.10;96317.16;5008095;28;20586;-81
2023/01/24 06:54:02;;;;;;;5.90;3.78;;;;;;;4.78;75.00;96322.19;4969020;28;20021;-79
2023/01/24 06:56:28;;;;;;;6.25;3.97;;;;;;;3.52;76.99;96227.22;5003178;28;20116;-81
2023/01/24 06:58:53;;;;;;;7.00;4.53;;;;;;;3.54;77.37;96211.28;5000666;28;20041;-81
2023/01/24 07:01:19;;;;;;;7.65;3.97;;;;;;;3.70;77.61;96252.81;4989231;28;20164;-79
2023/01/24 07:03:44;;;;;;;5.45;3.78;;;;;;;3.40;78.66;96248.00;4996958;28;20036;-78
2023/01/24 07:06:09;;;;;;;6.90;4.13;;;;;;;4.05;78.37;96330.28;4990323;28;20033;-78
2023/01/24 07:08:35;;;;;;;11.65;5.78;;;;;;;3.80;78.25;96250.59;4993852;28;20034;-77
2023/01/24 07:11:00;;;;;;;10.32;5.45;;;;;;;3.58;78.16;96270.22;4989972;28;20384;-81
2023/01/24 07:13:26;;;;;;;14.65;5.90;;;;;;;4.24;77.98;96331.28;4976012;28;20034;-81
2023/01/24 07:15:51;;;;;;;9.85;5.70;;;;;;;3.61;77.63;96214.69;4975218;28;20030;-80
2023/01/24 07:18:18;;;;;;;11.00;5.57;;;;;;;3.56;77.75;96193.53;4997064;28;20772;-81
2023/01/24 07:20:45;;;;;;;11.02;5.80;;;;;;;4.41;78.38;96329.81;4983676;28;20033;-81
2023/01/24 07:23:27;;;;;;;11.88;6.43;;;;;;;3.68;77.61;96220.75;4976419;28;20512;-81
2023/01/24 07:25:53;;;;;;;11.25;6.32;;;;;;;4.10;78.14;96287.69;4984974;28;20116;-80
2023/01/24 07:28:19;;;;;;;11.65;6.20;;;;;;;3.36;77.28;96223.19;4999028;28;20230;-81
2023/01/24 07:30:48;;;;;;;14.93;6.25;;;;;;;3.86;77.34;96271.56;4996804;28;20034;-81
2023/01/24 07:33:13;;;;;;;13.80;6.80;;;;;;;3.69;77.40;96232.84;4996342;28;20037;-80
2023/01/24 07:35:40;;;;;;;14.10;5.53;;;;;;;3.46;77.51;96199.19;5001780;28;20551;-80
2023/01/24 07:38:05;;;;;;;9.65;6.20;;;;;;;3.88;77.75;96272.19;4987392;28;20045;-80
2023/01/24 07:40:31;;;;;;;12.00;6.45;;;;;;;3.83;77.93;96263.28;4995030;28;20038;-81
2023/01/24 07:43:00;;;;;;;12.95;6.00;;;;;;;4.25;77.77;96354.72;5006033;28;20108;-80
2023/01/24 07:45:25;;;;;;;9.02;5.50;;;;;;;4.15;78.08;96335.94;4988448;28;20030;-80
2023/01/24 07:47:54;;;;;;;17.30;6.03;;;;;;;3.94;77.81;96282.88;4989686;28;20080;-81
2023/01/24 07:50:20;;;;;;;12.38;5.50;;;;;;;4.26;77.84;96358.13;4987425;28;20146;-80
2023/01/24 07:52:45;;;;;;;11.45;5.43;;;;;;;3.45;78.44;96239.53;4987378;28;20257;-80
2023/01/24 07:55:11;;;;;;;9.82;4.88;;;;;;;3.59;78.48;96246.38;4977674;28;20042;-82
2023/01/24 07:57:36;;;;;;;11.02;5.63;;;;;;;3.80;79.58;96303.06;5001208;28;20052;-79
2023/01/24 08:00:03;;;;;;;10.13;5.30;;;;;;;4.33;79.55;96373.88;4999534;28;20431;-79
2023/01/24 08:02:28;;;;;;;12.73;5.00;;;;;;;3.69;79.61;96262.50;4981603;28;20041;-81
2023/01/24 08:04:54;;;;;;;9.48;5.43;;;;;;;3.36;79.73;96231.06;4989926;28;20034;-81
2023/01/24 08:07:20;;;;;;;12.18;5.25;;;;;;;3.16;78.03;96187.50;4980340;28;20136;-83
2023/01/24 08:09:47;;;;;;;8.40;4.88;;;;;;;4.53;78.47;96388.56;4985467;28;20128;-81
2023/01/24 08:12:13;;;;;;;12.43;5.90;;;;;;;4.18;78.01;96316.34;4991015;28;20041;-77
2023/01/24 08:14:39;;;;;;;12.02;6.13;;;;;;;4.52;78.48;96373.81;4978730;28;20049;-77
2023/01/24 08:17:04;;;;;;;15.95;6.40;;;;;;;4.18;77.90;96335.53;4996601;28;20032;-77
2023/01/24 08:19:31;;;;;;;16.13;5.78;;;;;;;4.28;77.92;96330.66;4998845;28;20049;-77
2023/01/24 08:21:56;;;;;;;9.95;5.05;;;;;;;4.44;77.80;96352.22;4973000;28;20029;-77
2023/01/24 08:24:22;;;;;;;14.82;6.97;;;;;;;4.00;77.63;96306.47;5001280;28;20148;-77
2023/01/24 08:26:48;;;;;;;10.48;5.50;;;;;;;4.08;78.33;96298.38;4997673;28;20045;-77
2023/01/24 08:29:14;;;;;;;11.20;6.53;;;;;;;4.28;77.73;96332.47;5000781;28;20078;-77
2023/01/24 08:31:40;;;;;;;13.77;7.05;;;;;;;4.57;78.32;96384.53;5001560;28;20128;-77
2023/01/24 08:34:05;;;;;;;12.13;6.85;;;;;;;4.32;78.50;96346.00;5000642;28;20060;-77
2023/01/24 08:36:31;;;;;;;16.77;6.85;;;;;;;4.36;78.61;96352.44;4998327;28;20055;-78
2023/01/24 08:38:56;;;;;;;16.55;7.75;;;;;;;3.87;78.36;96275.00;4981113;28;20037;-77
2023/01/24 08:41:22;;;;;;;11.48;6.18;;;;;;;4.03;78.18;96328.91;5002516;28;20030;-77
2023/01/24 08:43:47;;;;;;;9.20;5.13;;;;;;;4.57;77.97;96391.63;5010162;28;20037;-77
2023/01/24 08:46:12;;;;;;;10.18;5.55;;;;;;;4.33;78.99;96348.44;5005674;28;20605;-77
2023/01/24 08:48:38;;;;;;;8.20;5.25;;;;;;;3.97;78.79;96288.50;5000812;28;20077;-78
2023/01/24 08:51:04;;;;;;;12.23;5.75;;;;;;;4.50;78.64;96388.97;4998608;28;20061;-77
2023/01/24 08:53:30;;;;;;;13.82;4.63;;;;;;;4.35;78.93;96387.63;4981671;28;20034;-80
2023/01/24 08:55:55;;;;;;;9.18;5.30;;;;;;;3.45;79.61;96261.31;4970820;28;20124;-82
2023/01/24 08:58:21;;;;;;;8.43;4.82;;;;;;;3.81;80.84;96281.09;4975833;28;20491;-81
2023/01/24 09:00:47;;;;;;;8.82;4.70;;;;;;;3.40;79.37;96200.81;4991278;28;20488;-80
2023/01/24 09:03:16;;;;;;;10.60;5.80;;;;;;;4.31;79.35;96345.19;4969976;28;20038;-79
2023/01/24 09:05:42;;;;;;;10.70;5.32;;;;;;;3.85;79.34;96253.41;4994522;28;20861;-81
2023/01/24 09:08:08;;;;;;;10.93;5.55;;;;;;;3.93;79.63;96278.63;4983608;28;20033;-80
2023/01/24 09:10:33;;;;;;;9.27;4.95;;;;;;;4.08;77.99;96318.56;5009092;28;20132;-80
2023/01/24 09:13:00;;;;;;;10.82;5.43;;;;;;;3.44;78.91;96188.09;5008119;28;20401;-79
2023/01/24 09:15:25;;;;;;;7.32;4.80;;;;;;;3.41;79.36;96278.47;5002373;28;20149;-79
2023/01/24 09:17:51;;;;;;;9.93;5.15;;;;;;;3.96;79.20;96322.84;4986508;28;20030;-80
2023/01/24 09:20:16;;;;;;;10.13;4.78;;;;;;;3.96;79.81;96380.59;5002582;28;20038;-80
2023/01/24 09:22:42;;;;;;;10.20;5.10;;;;;;;3.88;79.89;96339.59;5001846;28;20095;-81
2023/01/24 09:25:08;;;;;;;11.65;5.53;;;;;;;4.09;79.98;96373.50;5220599;23;20427;-79
2023/01/24 09:27:37;;;;;;;12.45;5.90;;;;;;;3.36;79.44;96256.47;4961919;28;20122;-81
2023/01/24 09:30:05;;;;;;;11.45;6.70;;;;;;;3.78;79.76;96292.78;4963649;28;20039;-79
2023/01/24 09:32:30;;;;;;;12.98;5.63;;;;;;;3.86;79.27;96331.13;4951809;28;20133;-78
2023/01/24 09:34:56;;;;;;;8.75;5.03;;;;;;;3.52;79.88;96281.47;4962427;28;20049;-79
2023/01/24 09:37:22;;;;;;;8.75;5.10;;;;;;;3.65;80.49;96298.03;4967570;28;20066;-81
2023/01/24 09:39:48;;;;;;;12.85;5.13;;;;;;;4.34;79.63;96375.50;4946731;28;20204;-78
2023/01/24 09:42:18;;;;;;;10.02;5.03;;;;;;;4.56;80.27;96371.59;4965367;28;20042;-79
2023/01/24 09:44:58;;;;;;;11.48;5.53;;;;;;;3.67;80.08;96250.59;4942364;28;20138;-83
2023/01/24 09:47:25;;;;;;;9.57;5.38;;;;;;;3.92;79.86;96262.06;4941332;28;20544;-81
2023/01/24 09:50:09;;;;;;;6.78;4.28;;;;;;;4.71;79.62;96376.59;4957689;28;20041;-82
2023/01/24 09:52:40;;;;;;;6.93;4.32;;;;;;;4.79;80.23;96382.44;4957043;28;20034;-80
2023/01/24 09:55:14;;;;;;;11.73;6.65;;;;;;;4.40;79.87;96282.75;4936892;28;20503;-79
2023/01/24 09:58:08;;;;;;;13.60;6.18;;;;;;;4.98;77.58;96371.03;4945028;28;20039;-80
2023/01/24 10:00:37;;;;;;;12.02;6.35;;;;;;;4.42;79.61;96278.09;4952139;28;20046;-80
2023/01/24 10:03:09;;;;;;;8.80;6.40;;;;;;;4.55;78.71;96306.94;4945459;28;20564;-80
2023/01/24 10:05:38;;;;;;;11.38;6.22;;;;;;;4.65;78.93;96328.34;4962488;28;20239;-80
2023/01/24 10:08:45;;;;;;;8.32;4.40;;;;;;;4.49;78.43;96350.63;4943171;28;20449;-80
2023/01/24 10:11:40;;;;;;;8.50;4.80;;;;;;;4.76;77.81;96358.38;4948353;28;20047;-80
2023/01/24 10:14:26;;;;;;;8.63;3.97;;;;;;;4.80;78.90;96356.97;4962858;28;20045;-81
2023/01/24 10:17:18;;;;;;;9.52;4.30;;;;;;;4.79;79.08;96356.16;4941540;28;20057;-83
2023/01/24 10:19:59;;;;;;;10.27;4.10;;;;;;;4.82;78.26;96357.56;4956860;28;20049;-80
2023/01/24 10:23:01;;;;;;;8.30;3.80;;;;;;;4.76;78.71;96347.88;4956248;28;20073;-80
2023/01/24 10:25:36;;;;;;;6.38;3.17;;;;;;;4.62;78.58;96310.34;4962956;28;20080;-80
2023/01/24 10:28:02;;;;;;;8.32;4.00;;;;;;;4.77;77.12;96346.88;4945731;28;20042;-82
2023/01/24 10:30:53;;;;;;;8.43;3.22;;;;;;;4.60;77.46;96354.41;4967999;28;21211;-83
2023/01/24 10:33:19;;;;;;;8.13;3.13;;;;;;;4.43;78.89;96338.28;4959414;28;20067;-81
2023/01/24 10:35:53;;;;;;;5.78;3.45;;;;;;;4.36;79.88;96328.81;4966180;28;20537;-79
2023/01/24 10:38:19;;;;;;;5.63;3.17;;;;;;;4.27;79.92;96331.66;4964132;28;20838;-79
2023/01/24 10:41:20;;;;;;;5.25;2.97;;;;;;;3.75;80.88;96190.03;4950220;28;20054;-77
2023/01/24 10:43:50;;;;;;;6.82;3.53;;;;;;;3.81;79.25;96197.13;4954540;28;20042;-77
2023/01/24 10:46:43;;;;;;;4.35;2.65;;;;;;;3.97;78.37;96275.38;4965899;28;20038;-78
2023/01/24 10:49:17;;;;;;;7.82;4.20;;;;;;;4.30;79.53;96275.28;4981397;28;20073;-78
2023/01/24 10:51:42;;;;;;;9.38;5.07;;;;;;;4.44;77.73;96332.00;4964252;28;20124;-79
2023/01/24 10:54:22;;;;;;;6.22;3.35;;;;;;;4.31;78.48;96273.47;4963291;28;20642;-81
2023/01/24 10:56:48;;;;;;;5.07;3.10;;;;;;;4.47;78.41;96297.47;4955256;28;20038;-79
2023/01/24 10:59:15;;;;;;;4.28;2.58;;;;;;;4.18;78.02;96224.44;4951015;28;20041;-79
2023/01/24 11:01:47;;;;;;;5.47;3.00;;;;;;;4.90;77.38;96331.84;4954636;28;21136;-78
2023/01/24 11:04:26;;;;;;;5.22;2.83;;;;;;;4.66;76.70;96304.44;4975115;28;20050;-80
2023/01/24 11:06:51;;;;;;;4.47;2.72;;;;;;;4.62;77.44;96308.53;4975647;28;20030;-79
2023/01/24 11:09:25;;;;;;;4.25;2.58;;;;;;;4.58;76.33;96282.84;4955358;28;20030;-78
2023/01/24 11:11:56;;;;;;;5.05;3.22;;;;;;;5.02;78.09;96326.75;4971864;28;20042;-79
2023/01/24 11:14:33;;;;;;;7.60;4.03;;;;;;;4.74;76.97;96298.16;4974578;28;20125;-78
2023/01/24 11:17:07;;;;;;;9.77;4.68;;;;;;;4.74;77.45;96284.19;4953072;28;20081;-78
2023/01/24 11:19:38;;;;;;;8.18;3.95;;;;;;;4.99;76.89;96322.69;4970595;28;20145;-79
2023/01/24 11:22:23;;;;;;;8.93;4.60;;;;;;;4.99;77.16;96325.31;4965493;28;20034;-78
2023/01/24 11:24:49;;;;;;;6.75;3.95;;;;;;;5.00;77.82;96310.34;4959340;28;20385;-78
2023/01/24 11:27:20;;;;;;;11.15;5.55;;;;;;;4.99;78.10;96314.00;4945828;28;20531;-81
2023/01/24 11:30:04;;;;;;;5.15;2.85;;;;;;;4.68;76.64;96262.19;4961509;28;20547;-79
2023/01/24 11:33:03;;;;;;;4.70;2.90;;;;;;;5.02;77.49;96308.34;4959892;28;20524;-78
2023/01/24 11:35:41;;;;;;;6.47;3.47;;;;;;;4.51;76.73;96246.09;4969985;28;20384;-78
2023/01/24 11:38:34;;;;;;;10.75;3.88;;;;;;;4.65;76.25;96273.16;4952064;28;20325;-78
2023/01/24 11:41:36;;;;;;;8.57;3.13;;;;;;;4.91;77.03;96309.78;4968598;28;20035;-77
2023/01/24 11:44:39;;;;;;;7.95;4.25;;;;;;;4.68;76.46;96311.31;4938713;28;20531;-77
2023/01/24 11:47:21;;;;;;;7.55;3.22;;;;;;;4.70;77.00;96314.56;4958712;28;20672;-78
2023/01/24 11:50:10;;;;;;;7.75;3.85;;;;;;;4.58;78.26;96302.06;4955997;28;20089;-79
2023/01/24 11:53:09;;;;;;;8.18;4.00;;;;;;;4.78;77.76;96307.25;4980747;28;20155;-78
2023/01/24 11:55:55;;;;;;;6.30;3.08;;;;;;;4.64;77.40;96303.88;4965077;28;20074;-77
2023/01/24 11:58:33;;;;;;;5.05;3.30;;;;;;;4.65;77.43;96278.41;4977510;28;20816;-78
2023/01/24 12:01:12;;;;;;;6.55;3.63;;;;;;;4.37;77.44;96215.66;4952447;28;20119;-78
2023/01/24 12:04:27;;;;;;;12.23;4.65;;;;;;;4.92;78.20;96300.09;4955374;28;20045;-78
2023/01/24 12:07:17;;;;;;;6.97;4.05;;;;;;;4.68;76.34;96306.06;4971576;28;20026;-78
2023/01/24 12:09:49;;;;;;;9.48;4.40;;;;;;;4.71;77.60;96309.09;4974577;28;20117;-77
2023/01/24 12:12:41;;;;;;;5.75;3.38;;;;;;;4.21;78.60;96242.41;4956021;28;20186;-78
2023/01/24 12:15:38;;;;;;;8.65;4.35;;;;;;;4.83;77.98;96315.28;4969594;28;20029;-78
2023/01/24 12:18:20;;;;;;;12.30;4.35;;;;;;;4.58;77.19;96246.88;4946540;28;20067;-77
2023/01/24 12:20:54;;;;;;;;;;;;;;;5.00;77.85;96307.72;4977189;28;20491;-79
2023/01/24 12:23:44;;;;;;;8.30;4.03;;;;;;;5.11;77.70;96311.53;4956347;28;19988;-78
2023/01/24 12:26:23;;;;;;;6.45;3.35;;;;;;;4.80;76.12;96294.72;4955672;28;20138;-78
2023/01/24 12:29:08;;;;;;;7.72;3.70;;;;;;;4.83;75.31;96259.28;4951989;28;20422;-78
2023/01/24 12:31:48;;;;;;;6.55;3.90;;;;;;;4.85;74.92;96280.91;4957258;28;20646;-78